Time;durP1;ratioP1;P1;durP2;ratioP2;P2;SDS_P1;SDS_P2;PMS_P1;PMS_P2;Temp;Humidity;BMP_temperature;BMP_pressure;BME280_temperature;BME280_humidity;BME280_pressure;Samples;Min_cycle;Max_cycle;Signal;HPM_P1;HPM_P2
2022/11/14 00:01:06;;;;;;;18.08;14.15;;;;;;;;;;5061569;28;20211;-71
2022/11/14 00:03:32;;;;;;;17.48;14.45;;;;;;;;;;5061223;28;20217;-71
2022/11/14 00:06:04;;;;;;;17.77;13.95;;;;;;;;;;5061462;28;20365;-71
2022/11/14 00:08:30;;;;;;;18.88;13.75;;;;;;;;;;5062211;28;20196;-71
2022/11/14 00:10:56;;;;;;;17.50;14.27;;;;;;;;;;5065011;28;20203;-71
2022/11/14 00:13:23;;;;;;;17.02;13.32;;;;;;;;;;5064999;28;20200;-71
2022/11/14 00:15:50;;;;;;;17.42;13.70;;;;;;;;;;5065145;28;20219;-71
2022/11/14 00:18:16;;;;;;;18.95;13.82;;;;;;;;;;5064512;28;20201;-71
2022/11/14 00:20:42;;;;;;;19.05;13.27;;;;;;;;;;5065090;28;20529;-71
2022/11/14 00:23:10;;;;;;;18.20;13.93;;;;;;;;;;5064780;28;20228;-71
2022/11/14 00:25:36;;;;;;;16.55;13.40;;;;;;;;;;5064867;28;20197;-71
2022/11/14 00:28:02;;;;;;;15.98;11.93;;;;;;;;;;5064448;28;20223;-71
2022/11/14 00:30:29;;;;;;;15.35;12.27;;;;;;;;;;5064779;28;20366;-71
2022/11/14 00:32:55;;;;;;;14.95;12.70;;;;;;;;;;5064579;28;20273;-71
2022/11/14 00:35:21;;;;;;;15.32;11.45;;;;;;;;;;5064876;28;20205;-71
2022/11/14 00:37:47;;;;;;;17.25;12.93;;;;;;;;;;5064449;28;20208;-71
2022/11/14 00:40:15;;;;;;;13.07;11.27;;;;;;;;;;5064622;28;20204;-71
2022/11/14 00:42:42;;;;;;;14.35;11.73;;;;;;;;;;5064423;28;20530;-71
2022/11/14 00:45:08;;;;;;;15.07;11.65;;;;;;;;;;5064627;28;20245;-71
2022/11/14 00:47:35;;;;;;;12.68;11.23;;;;;;;;;;5064715;28;20209;-71
2022/11/14 00:50:01;;;;;;;15.85;12.65;;;;;;;;;;5064311;28;20212;-71
2022/11/14 00:52:27;;;;;;;13.73;10.98;;;;;;;;;;5064413;28;20280;-71
2022/11/14 00:54:53;;;;;;;15.02;11.55;;;;;;;;;;5064363;28;20374;-71
2022/11/14 00:57:21;;;;;;;13.82;11.40;;;;;;;;;;5064235;28;20220;-71
2022/11/14 00:59:47;;;;;;;12.75;11.32;;;;;;;;;;5063954;28;20205;-71
2022/11/14 01:02:14;;;;;;;13.18;11.23;;;;;;;;;;5064299;28;20209;-71
2022/11/14 01:04:40;;;;;;;14.63;12.18;;;;;;;;;;5064164;28;20235;-71
2022/11/14 01:07:06;;;;;;;13.13;10.68;;;;;;;;;;5064006;28;20197;-71
2022/11/14 01:09:33;;;;;;;11.77;10.50;;;;;;;;;;5063804;28;20425;-71
2022/11/14 01:11:59;;;;;;;14.02;11.02;;;;;;;;;;5063837;28;20197;-71
2022/11/14 01:14:27;;;;;;;14.30;11.85;;;;;;;;;;5063691;28;20197;-71
2022/11/14 01:16:53;;;;;;;14.70;11.50;;;;;;;;;;5063968;28;20197;-71
2022/11/14 01:19:19;;;;;;;13.07;10.95;;;;;;;;;;5063371;28;20215;-71
2022/11/14 01:21:45;;;;;;;15.13;11.63;;;;;;;;;;5064138;28;20197;-71
2022/11/14 01:24:12;;;;;;;12.65;10.80;;;;;;;;;;5063780;28;20462;-71
2022/11/14 01:26:38;;;;;;;13.98;11.57;;;;;;;;;;5063622;28;20201;-71
2022/11/14 01:29:04;;;;;;;12.25;10.73;;;;;;;;;;5063251;28;20224;-71
2022/11/14 01:31:32;;;;;;;12.02;10.10;;;;;;;;;;5063768;28;20201;-71
2022/11/14 01:33:58;;;;;;;12.98;10.85;;;;;;;;;;5063385;28;20201;-71
2022/11/14 01:36:24;;;;;;;13.45;10.27;;;;;;;;;;5063484;28;20496;-71
2022/11/14 01:38:54;;;;;;;13.60;10.43;;;;;;;;;;5063173;28;20197;-71
2022/11/14 01:41:21;;;;;;;14.02;10.82;;;;;;;;;;5063361;28;20197;-71
2022/11/14 01:43:47;;;;;;;13.45;10.85;;;;;;;;;;5063076;28;20233;-71
2022/11/14 01:46:16;;;;;;;12.77;10.88;;;;;;;;;;5063434;28;20426;-71
2022/11/14 01:48:45;;;;;;;11.50;10.30;;;;;;;;;;5063181;28;20204;-71
2022/11/14 01:51:23;;;;;;;13.93;11.50;;;;;;;;;;5063165;28;20465;-71
2022/11/14 01:53:51;;;;;;;16.38;11.15;;;;;;;;;;5063120;28;20195;-71
2022/11/14 01:56:18;;;;;;;15.88;11.68;;;;;;;;;;5063081;28;20212;-71
2022/11/14 01:58:46;;;;;;;14.77;12.55;;;;;;;;;;5063188;28;20505;-71
2022/11/14 02:01:12;;;;;;;21.05;14.25;;;;;;;;;;5063322;28;20379;-71
2022/11/14 02:03:40;;;;;;;18.92;14.30;;;;;;;;;;5063050;28;20217;-71
2022/11/14 02:06:09;;;;;;;21.15;15.55;;;;;;;;;;5062901;28;20527;-71
2022/11/14 02:08:36;;;;;;;22.70;15.40;;;;;;;;;;5062551;28;20205;-71
2022/11/14 02:11:02;;;;;;;25.90;17.25;;;;;;;;;;5062882;28;20461;-71
2022/11/14 02:13:29;;;;;;;28.40;18.08;;;;;;;;;;5062206;28;20392;-71
2022/11/14 02:15:55;;;;;;;29.95;17.75;;;;;;;;;;5062638;28;20288;-71
2022/11/14 02:18:22;;;;;;;25.25;18.20;;;;;;;;;;5062408;28;20208;-71
2022/11/14 02:20:49;;;;;;;26.83;19.17;;;;;;;;;;5062663;28;20208;-71
2022/11/14 02:23:24;;;;;;;26.90;18.42;;;;;;;;;;5062861;28;20546;-71
2022/11/14 02:25:51;;;;;;;26.42;17.70;;;;;;;;;;5062545;28;20196;-71
2022/11/14 02:28:19;;;;;;;23.40;16.73;;;;;;;;;;5062243;28;20217;-71
2022/11/14 02:30:45;;;;;;;24.48;15.88;;;;;;;;;;5061801;28;20208;-71
2022/11/14 02:33:12;;;;;;;28.55;15.90;;;;;;;;;;5062263;28;20200;-71
2022/11/14 02:35:38;;;;;;;21.42;15.07;;;;;;;;;;5062672;28;20652;-71
2022/11/14 02:38:06;;;;;;;40.58;16.05;;;;;;;;;;5062250;28;20504;-71
2022/11/14 02:40:32;;;;;;;42.22;16.83;;;;;;;;;;5062798;28;20357;-71
2022/11/14 02:42:59;;;;;;;21.13;14.15;;;;;;;;;;5062187;28;20201;-71
2022/11/14 02:45:25;;;;;;;19.77;15.05;;;;;;;;;;5062024;28;20204;-71
2022/11/14 02:47:51;;;;;;;22.60;16.08;;;;;;;;;;5061887;28;20496;-71
2022/11/14 02:50:18;;;;;;;25.92;14.90;;;;;;;;;;5062261;28;20201;-71
2022/11/14 02:52:44;;;;;;;23.38;15.52;;;;;;;;;;5062487;28;20197;-71
2022/11/14 02:55:12;;;;;;;20.45;15.45;;;;;;;;;;5062110;28;20193;-71
2022/11/14 02:57:38;;;;;;;26.30;15.88;;;;;;;;;;5062175;28;20209;-71
2022/11/14 03:00:05;;;;;;;19.45;15.48;;;;;;;;;;5061893;28;20189;-71
2022/11/14 03:02:31;;;;;;;31.67;15.65;;;;;;;;;;5062048;28;20348;-71
2022/11/14 03:04:57;;;;;;;25.55;16.42;;;;;;;;;;5061933;28;20223;-71
2022/11/14 03:07:24;;;;;;;22.70;16.55;;;;;;;;;;5062073;28;20405;-71
2022/11/14 03:09:50;;;;;;;21.80;16.92;;;;;;;;;;5061615;28;20204;-71
2022/11/14 03:12:18;;;;;;;26.30;17.02;;;;;;;;;;5061995;28;20204;-71
2022/11/14 03:14:44;;;;;;;27.30;16.35;;;;;;;;;;5061628;28;20211;-71
2022/11/14 03:17:11;;;;;;;21.85;15.25;;;;;;;;;;5061994;28;20215;-71
2022/11/14 03:19:37;;;;;;;22.08;16.42;;;;;;;;;;5061452;28;20205;-71
2022/11/14 03:22:03;;;;;;;20.23;15.75;;;;;;;;;;5061904;28;20205;-71
2022/11/14 03:24:30;;;;;;;27.60;16.42;;;;;;;;;;5061453;28;20221;-71
2022/11/14 03:26:56;;;;;;;31.10;17.65;;;;;;;;;;5061670;28;20520;-72
2022/11/14 03:29:24;;;;;;;95.53;16.88;;;;;;;;;;5060998;28;20217;-71
2022/11/14 03:31:50;;;;;;;30.52;16.90;;;;;;;;;;5061946;28;20493;-71
2022/11/14 03:34:16;;;;;;;20.63;16.05;;;;;;;;;;5061764;28;20194;-71
2022/11/14 03:36:42;;;;;;;20.83;15.18;;;;;;;;;;5061642;28;20204;-71
2022/11/14 03:39:09;;;;;;;37.80;15.25;;;;;;;;;;5061400;28;20197;-71
2022/11/14 03:41:35;;;;;;;30.70;14.07;;;;;;;;;;5061736;28;20204;-71
2022/11/14 03:44:01;;;;;;;16.42;13.13;;;;;;;;;;5063322;28;20555;-71
2022/11/14 03:46:29;;;;;;;20.63;13.95;;;;;;;;;;5065776;28;20221;-71
2022/11/14 03:48:55;;;;;;;14.75;13.02;;;;;;;;;;5065305;28;20211;-71
2022/11/14 03:51:22;;;;;;;23.15;15.05;;;;;;;;;;5065605;28;20224;-71
2022/11/14 03:53:48;;;;;;;26.35;15.15;;;;;;;;;;5065438;28;20216;-71
2022/11/14 03:56:14;;;;;;;21.08;14.80;;;;;;;;;;5065407;28;20540;-71
2022/11/14 03:58:40;;;;;;;22.50;14.50;;;;;;;;;;5064900;28;20407;-71
2022/11/14 04:01:07;;;;;;;16.30;13.95;;;;;;;;;;5065738;28;20205;-71
2022/11/14 04:03:34;;;;;;;15.38;13.23;;;;;;;;;;5065419;28;20213;-71
2022/11/14 04:06:02;;;;;;;17.10;13.80;;;;;;;;;;5065234;28;20203;-71
2022/11/14 04:08:28;;;;;;;19.63;14.88;;;;;;;;;;5065130;28;20512;-71
2022/11/14 04:10:54;;;;;;;23.17;14.20;;;;;;;;;;5064970;28;20228;-71
2022/11/14 04:13:21;;;;;;;16.13;13.07;;;;;;;;;;5065347;28;20202;-71
2022/11/14 04:15:47;;;;;;;15.45;12.07;;;;;;;;;;5065097;28;20204;-71
2022/11/14 04:18:13;;;;;;;18.23;13.82;;;;;;;;;;5064853;28;20388;-71
2022/11/14 04:20:41;;;;;;;14.32;11.70;;;;;;;;;;5064989;28;20246;-71
2022/11/14 04:23:07;;;;;;;12.65;11.20;;;;;;;;;;5064899;28;20204;-71
2022/11/14 04:25:33;;;;;;;13.25;11.80;;;;;;;;;;5064584;28;20228;-71
2022/11/14 04:28:00;;;;;;;13.52;12.10;;;;;;;;;;5064390;28;20239;-71
2022/11/14 04:30:26;;;;;;;22.50;12.43;;;;;;;;;;5064923;28;20203;-71
2022/11/14 04:32:52;;;;;;;17.55;12.88;;;;;;;;;;5064796;28;20488;-71
2022/11/14 04:35:18;;;;;;;18.25;12.27;;;;;;;;;;5064699;28;20207;-70
2022/11/14 04:37:47;;;;;;;15.57;12.25;;;;;;;;;;5064382;28;20197;-70
2022/11/14 04:40:13;;;;;;;13.70;12.23;;;;;;;;;;5064297;28;20201;-70
2022/11/14 04:42:39;;;;;;;22.50;12.02;;;;;;;;;;5064680;28;20500;-70
2022/11/14 04:45:06;;;;;;;16.58;12.45;;;;;;;;;;5064461;28;20217;-71
2022/11/14 04:47:32;;;;;;;13.85;12.35;;;;;;;;;;5064432;28;20211;-71
2022/11/14 04:49:59;;;;;;;14.40;12.70;;;;;;;;;;5063776;28;20630;-71
2022/11/14 04:52:25;;;;;;;14.52;12.60;;;;;;;;;;5063784;28;20201;-71
2022/11/14 04:54:52;;;;;;;15.93;11.90;;;;;;;;;;5063942;28;20484;-71
2022/11/14 04:57:19;;;;;;;14.25;12.10;;;;;;;;;;5064447;28;20201;-71
2022/11/14 04:59:45;;;;;;;17.08;12.60;;;;;;;;;;5063736;28;20226;-71
2022/11/14 05:02:11;;;;;;;15.18;11.15;;;;;;;;;;5064197;28;20216;-71
2022/11/14 05:04:38;;;;;;;20.35;13.02;;;;;;;;;;5064054;28;20232;-71
2022/11/14 05:07:04;;;;;;;15.48;12.63;;;;;;;;;;5063960;28;20212;-71
2022/11/14 05:09:30;;;;;;;16.15;13.07;;;;;;;;;;5063605;28;20198;-71
2022/11/14 05:11:58;;;;;;;25.70;15.55;;;;;;;;;;5063900;28;20418;-71
2022/11/14 05:14:24;;;;;;;21.65;14.98;;;;;;;;;;5063693;28;20521;-71
2022/11/14 05:16:50;;;;;;;22.25;15.35;;;;;;;;;;5063560;28;20201;-71
2022/11/14 05:19:17;;;;;;;18.33;14.05;;;;;;;;;;5063574;28;20216;-71
2022/11/14 05:21:43;;;;;;;51.78;13.57;;;;;;;;;;5064150;28;20356;-71
2022/11/14 05:24:09;;;;;;;19.10;12.55;;;;;;;;;;5062776;28;20242;-71
2022/11/14 05:26:36;;;;;;;19.67;12.75;;;;;;;;;;5063336;28;20204;-71
2022/11/14 05:29:03;;;;;;;16.45;12.48;;;;;;;;;;5063520;28;20224;-71
2022/11/14 05:31:30;;;;;;;33.65;12.65;;;;;;;;;;5064133;28;20197;-71
2022/11/14 05:33:56;;;;;;;14.68;11.80;;;;;;;;;;5063666;28;20366;-71
2022/11/14 05:36:22;;;;;;;19.65;13.07;;;;;;;;;;5063471;28;20198;-71
2022/11/14 05:38:48;;;;;;;26.15;12.23;;;;;;;;;;5063778;28;20519;-71
2022/11/14 05:41:16;;;;;;;15.70;12.25;;;;;;;;;;5063492;28;20204;-71
2022/11/14 05:43:42;;;;;;;30.77;12.50;;;;;;;;;;5063525;28;20393;-71
2022/11/14 05:46:11;;;;;;;15.60;11.15;;;;;;;;;;5063215;28;20197;-71
2022/11/14 05:48:38;;;;;;;13.75;12.25;;;;;;;;;;5063417;28;20204;-71
2022/11/14 05:51:05;;;;;;;14.63;11.63;;;;;;;;;;5063182;28;20408;-71
2022/11/14 05:53:32;;;;;;;17.05;13.02;;;;;;;;;;5063566;28;20204;-71
2022/11/14 05:56:00;;;;;;;25.65;13.68;;;;;;;;;;5063259;28;20207;-71
2022/11/14 05:58:26;;;;;;;23.45;12.88;;;;;;;;;;5062755;28;20203;-71
2022/11/14 06:00:52;;;;;;;16.35;13.50;;;;;;;;;;5062626;28;20205;-71
2022/11/14 06:03:20;;;;;;;16.60;13.23;;;;;;;;;;5062914;28;20495;-72
2022/11/14 06:05:46;;;;;;;14.52;12.05;;;;;;;;;;5062186;28;20217;-72
2022/11/14 06:08:12;;;;;;;17.70;13.35;;;;;;;;;;5062584;28;20197;-73
2022/11/14 06:10:39;;;;;;;15.90;12.60;;;;;;;;;;5062917;28;20256;-73
2022/11/14 06:13:05;;;;;;;25.77;13.20;;;;;;;;;;5062526;28;20311;-73
2022/11/14 06:15:31;;;;;;;14.35;12.52;;;;;;;;;;5057462;28;20200;-61
2022/11/14 06:17:57;;;;;;;15.80;12.27;;;;;;;;;;5052317;28;20228;-62
2022/11/14 06:20:25;;;;;;;17.17;13.23;;;;;;;;;;5052003;28;20227;-62
2022/11/14 06:22:54;;;;;;;19.80;13.48;;;;;;;;;;5058122;28;20212;-61
2022/11/14 06:25:20;;;;;;;18.10;12.57;;;;;;;;;;5057303;28;20298;-62
2022/11/14 06:27:46;;;;;;;18.77;13.50;;;;;;;;;;5043139;28;20229;-63
2022/11/14 06:30:13;;;;;;;14.07;11.85;;;;;;;;;;5032846;28;20213;-63
2022/11/14 06:32:39;;;;;;;15.43;12.35;;;;;;;;;;5032210;28;20217;-62
2022/11/14 06:35:07;;;;;;;13.15;11.35;;;;;;;;;;5043626;28;20287;-61
2022/11/14 06:37:36;;;;;;;13.10;10.23;;;;;;;;;;5037301;28;20213;-61
2022/11/14 06:40:03;;;;;;;13.50;11.63;;;;;;;;;;5044981;28;20220;-63
2022/11/14 06:42:29;;;;;;;13.70;11.98;;;;;;;;;;5039139;28;20445;-61
2022/11/14 06:44:55;;;;;;;15.73;12.35;;;;;;;;;;5055495;28;20225;-62
2022/11/14 06:47:22;;;;;;;15.55;11.45;;;;;;;;;;5047959;28;20221;-61
2022/11/14 06:49:48;;;;;;;12.82;10.35;;;;;;;;;;5055179;28;20213;-62
2022/11/14 06:52:14;;;;;;;13.02;11.05;;;;;;;;;;5052810;28;20219;-62
2022/11/14 06:54:42;;;;;;;13.73;11.45;;;;;;;;;;5039456;28;20402;-62
2022/11/14 06:57:08;;;;;;;16.42;11.48;;;;;;;;;;5050790;28;20213;-62
2022/11/14 06:59:34;;;;;;;14.55;11.60;;;;;;;;;;5040212;28;20214;-63
2022/11/14 07:02:01;;;;;;;14.27;11.82;;;;;;;;;;5048718;28;20209;-62
2022/11/14 07:04:27;;;;;;;17.17;12.07;;;;;;;;;;5056010;28;20225;-62
2022/11/14 07:06:53;;;;;;;15.15;11.10;;;;;;;;;;5038612;28;20244;-61
2022/11/14 07:09:20;;;;;;;19.90;11.23;;;;;;;;;;5035688;28;20209;-63
2022/11/14 07:11:47;;;;;;;11.95;10.27;;;;;;;;;;5038889;28;20223;-61
2022/11/14 07:14:13;;;;;;;12.95;10.93;;;;;;;;;;5036111;28;20217;-61
2022/11/14 07:16:40;;;;;;;15.82;11.65;;;;;;;;;;5042366;28;20212;-62
2022/11/14 07:19:09;;;;;;;14.20;11.93;;;;;;;;;;5055769;28;20311;-62
2022/11/14 07:21:35;;;;;;;13.35;11.73;;;;;;;;;;5051913;28;20213;-62
2022/11/14 07:24:01;;;;;;;16.25;13.40;;;;;;;;;;5035516;28;20214;-62
2022/11/14 07:26:28;;;;;;;23.23;14.48;;;;;;;;;;5041357;28;20552;-62
2022/11/14 07:28:55;;;;;;;20.55;14.02;;;;;;;;;;5043644;28;20406;-62
2022/11/14 07:31:21;;;;;;;21.55;14.48;;;;;;;;;;5035867;28;20217;-62
2022/11/14 07:33:48;;;;;;;17.02;13.48;;;;;;;;;;5054139;28;20224;-62
2022/11/14 07:36:15;;;;;;;22.77;14.10;;;;;;;;;;5050916;28;20220;-62
2022/11/14 07:38:41;;;;;;;24.73;14.38;;;;;;;;;;5050539;28;20667;-62
2022/11/14 07:41:09;;;;;;;23.10;13.77;;;;;;;;;;5041924;28;20217;-62
2022/11/14 07:43:35;;;;;;;23.60;13.80;;;;;;;;;;5055253;28;20540;-62
2022/11/14 07:46:04;;;;;;;27.83;14.60;;;;;;;;;;5053834;28;20233;-62
2022/11/14 07:48:31;;;;;;;19.92;14.25;;;;;;;;;;5050760;28;20220;-62
2022/11/14 07:50:58;;;;;;;21.58;14.45;;;;;;;;;;5055508;28;20205;-62
2022/11/14 07:53:24;;;;;;;23.35;14.38;;;;;;;;;;5055476;28;20251;-62
2022/11/14 07:55:50;;;;;;;19.65;14.07;;;;;;;;;;5038236;28;20212;-62
2022/11/14 07:58:17;;;;;;;16.80;13.85;;;;;;;;;;5055171;28;20217;-62
2022/11/14 08:00:43;;;;;;;18.95;14.57;;;;;;;;;;5055212;28;20213;-62
2022/11/14 08:03:11;;;;;;;17.10;13.45;;;;;;;;;;5037768;28;20456;-62
2022/11/14 08:05:37;;;;;;;17.13;12.75;;;;;;;;;;5041156;28;20240;-62
2022/11/14 08:08:04;;;;;;;15.85;12.02;;;;;;;;;;5055691;28;20520;-62
2022/11/14 08:10:30;;;;;;;20.85;13.40;;;;;;;;;;5043177;28;20201;-62
2022/11/14 08:13:00;;;;;;;17.98;13.50;;;;;;;;;;5055559;28;20520;-62
2022/11/14 08:15:26;;;;;;;20.60;15.20;;;;;;;;;;5048467;28;20517;-62
2022/11/14 08:17:53;;;;;;;21.55;14.02;;;;;;;;;;5034315;28;20218;-61
2022/11/14 08:20:20;;;;;;;17.38;13.52;;;;;;;;;;5034464;28;20228;-61
2022/11/14 08:22:47;;;;;;;17.75;13.52;;;;;;;;;;5049666;28;20209;-60
2022/11/14 08:25:13;;;;;;;18.02;13.02;;;;;;;;;;5049213;28;20245;-61
2022/11/14 08:27:39;;;;;;;14.50;12.23;;;;;;;;;;5033257;28;20545;-62
2022/11/14 08:30:06;;;;;;;14.90;12.30;;;;;;;;;;5055941;28;20396;-61
2022/11/14 08:32:32;;;;;;;17.77;12.68;;;;;;;;;;5058661;28;20209;-62
2022/11/14 08:34:59;;;;;;;18.02;12.55;;;;;;;;;;5050063;28;20571;-62
2022/11/14 08:37:26;;;;;;;16.15;13.40;;;;;;;;;;5056875;28;20432;-61
2022/11/14 08:39:52;;;;;;;17.50;12.40;;;;;;;;;;5053894;28;20209;-62
2022/11/14 08:42:19;;;;;;;14.00;11.60;;;;;;;;;;5046521;28;20216;-62
2022/11/14 08:44:45;;;;;;;18.50;12.80;;;;;;;;;;5040966;28;20540;-62
2022/11/14 08:47:11;;;;;;;14.02;12.07;;;;;;;;;;5045113;28;20216;-61
2022/11/14 08:49:38;;;;;;;17.25;11.70;;;;;;;;;;5049647;28;20212;-61
2022/11/14 08:52:04;;;;;;;17.92;13.20;;;;;;;;;;5048105;28;20209;-62
2022/11/14 08:54:32;;;;;;;16.08;13.32;;;;;;;;;;5041160;28;20272;-63
2022/11/14 08:56:58;;;;;;;17.75;13.50;;;;;;;;;;5041927;28;20210;-63
2022/11/14 08:59:24;;;;;;;17.95;12.85;;;;;;;;;;5047298;28;20205;-61
2022/11/14 09:01:51;;;;;;;15.30;12.32;;;;;;;;;;5053830;28;20217;-61
2022/11/14 09:04:17;;;;;;;14.40;12.25;;;;;;;;;;5054401;28;20209;-60
2022/11/14 09:06:45;;;;;;;17.00;12.60;;;;;;;;;;5045125;28;20275;-61
2022/11/14 09:09:11;;;;;;;15.73;12.48;;;;;;;;;;5060887;28;20284;-62
2022/11/14 09:11:38;;;;;;;14.75;11.25;;;;;;;;;;5051348;28;20205;-62
2022/11/14 09:14:05;;;;;;;15.13;11.80;;;;;;;;;;5041529;28;20209;-61
2022/11/14 09:16:32;;;;;;;14.77;12.00;;;;;;;;;;5040859;28;20206;-61
2022/11/14 09:18:58;;;;;;;20.40;13.68;;;;;;;;;;5041429;28;20245;-62
2022/11/14 09:21:26;;;;;;;22.23;14.18;;;;;;;;;;5039837;28;20237;-61
2022/11/14 09:23:52;;;;;;;19.52;13.52;;;;;;;;;;5048325;28;20213;-63
2022/11/14 09:26:18;;;;;;;21.63;13.35;;;;;;;;;;5054849;28;20228;-61
2022/11/14 09:28:46;;;;;;;16.42;13.05;;;;;;;;;;5045717;28;20232;-63
2022/11/14 09:31:13;;;;;;;19.30;13.25;;;;;;;;;;5056663;28;20227;-64
2022/11/14 09:33:40;;;;;;;20.63;13.20;;;;;;;;;;5057362;28;20584;-62
2022/11/14 09:36:08;;;;;;;28.02;16.45;;;;;;;;;;5050330;28;20209;-62
2022/11/14 09:38:35;;;;;;;25.75;17.35;;;;;;;;;;5038884;28;20214;-62
2022/11/14 09:41:06;;;;;;;21.23;16.15;;;;;;;;;;5057806;28;20209;-62
2022/11/14 09:43:39;;;;;;;22.38;15.48;;;;;;;;;;5057709;28;20450;-62
2022/11/14 09:46:14;;;;;;;25.85;15.95;;;;;;;;;;5051106;28;20226;-62
2022/11/14 09:48:40;;;;;;;24.67;16.00;;;;;;;;;;5037854;28;20416;-62
2022/11/14 09:51:08;;;;;;;24.00;17.38;;;;;;;;;;5046635;28;20217;-62
2022/11/14 09:53:37;;;;;;;24.67;17.33;;;;;;;;;;5057805;28;20217;-62
2022/11/14 09:56:03;;;;;;;27.23;17.20;;;;;;;;;;5057573;28;20209;-62
2022/11/14 09:58:30;;;;;;;28.65;18.20;;;;;;;;;;5057405;28;20225;-61
2022/11/14 10:00:58;;;;;;;24.15;16.15;;;;;;;;;;5045851;28;20213;-63
2022/11/14 10:03:32;;;;;;;22.42;16.60;;;;;;;;;;5045076;28;20224;-62
2022/11/14 10:06:06;;;;;;;26.38;17.45;;;;;;;;;;5047020;28;20231;-62
2022/11/14 10:08:47;;;;;;;25.30;17.25;;;;;;;;;;5056158;28;20234;-62
2022/11/14 10:11:16;;;;;;;27.95;16.17;;;;;;;;;;5050436;28;20216;-62
2022/11/14 10:13:50;;;;;;;21.73;16.35;;;;;;;;;;5060529;28;20205;-65
2022/11/14 10:16:19;;;;;;;24.20;15.48;;;;;;;;;;5043850;28;20203;-63
2022/11/14 10:18:54;;;;;;;36.65;21.95;;;;;;;;;;5060254;28;20231;-64
2022/11/14 10:21:31;;;;;;;33.28;19.63;;;;;;;;;;5050391;28;20209;-63
2022/11/14 10:24:03;;;;;;;28.73;17.58;;;;;;;;;;5047339;28;20205;-61
2022/11/14 10:26:29;;;;;;;25.50;17.23;;;;;;;;;;5046504;28;20404;-61
2022/11/14 10:29:05;;;;;;;23.48;16.38;;;;;;;;;;5043537;28;20329;-61
2022/11/14 10:31:36;;;;;;;22.58;16.58;;;;;;;;;;5058361;28;20209;-62
2022/11/14 10:34:06;;;;;;;25.63;16.70;;;;;;;;;;5050832;28;20216;-62
2022/11/14 10:36:45;;;;;;;28.58;18.13;;;;;;;;;;5050133;28;20200;-61
2022/11/14 10:39:14;;;;;;;29.05;17.35;;;;;;;;;;5041568;28;20388;-62
2022/11/14 10:41:41;;;;;;;28.98;18.27;;;;;;;;;;5049744;28;20212;-62
2022/11/14 10:44:11;;;;;;;28.88;19.48;;;;;;;;;;5039310;28;20210;-62
2022/11/14 10:46:39;;;;;;;28.58;18.17;;;;;;;;;;5048060;28;20225;-62
2022/11/14 10:49:15;;;;;;;29.00;18.73;;;;;;;;;;5039800;28;20206;-61
2022/11/14 10:51:43;;;;;;;31.10;18.42;;;;;;;;;;5041504;28;20209;-62
2022/11/14 10:54:13;;;;;;;34.35;18.17;;;;;;;;;;5055416;28;20418;-62
2022/11/14 10:56:45;;;;;;;27.75;18.05;;;;;;;;;;5058674;28;20427;-62
2022/11/14 10:59:12;;;;;;;34.15;18.13;;;;;;;;;;5058508;28;20201;-62
2022/11/14 11:01:39;;;;;;;27.60;16.77;;;;;;;;;;5055206;28;20205;-63
2022/11/14 11:04:14;;;;;;;27.40;17.70;;;;;;;;;;5038959;28;20213;-62
2022/11/14 11:06:40;;;;;;;31.23;17.35;;;;;;;;;;5048876;28;20417;-63
2022/11/14 11:11:53;;;;;;;39.78;20.77;;;;;;;;;;5046258;28;20251;-62
2022/11/14 11:14:19;;;;;;;36.13;20.33;;;;;;;;;;5039000;28;20213;-62
2022/11/14 11:16:46;;;;;;;32.67;19.48;;;;;;;;;;5043710;28;20205;-62
2022/11/14 11:19:22;;;;;;;27.15;18.13;;;;;;;;;;5045408;28;20217;-63
2022/11/14 11:21:49;;;;;;;28.08;18.10;;;;;;;;;;5051211;28;20211;-63
2022/11/14 11:24:30;;;;;;;32.63;21.98;;;;;;;;;;5038779;28;20205;-63
2022/11/14 11:27:11;;;;;;;28.05;19.45;;;;;;;;;;5051824;28;20243;-63
2022/11/14 11:29:37;;;;;;;28.45;19.33;;;;;;;;;;5045983;28;20220;-64
2022/11/14 11:32:04;;;;;;;29.25;20.48;;;;;;;;;;5040562;28;20211;-64
2022/11/14 11:34:32;;;;;;;36.45;22.83;;;;;;;;;;5057756;28;20209;-64
2022/11/14 11:37:06;;;;;;;32.15;21.08;;;;;;;;;;5057659;28;20204;-64
2022/11/14 11:39:35;;;;;;;29.33;20.95;;;;;;;;;;5058588;28;20209;-64
2022/11/14 11:42:04;;;;;;;27.25;19.70;;;;;;;;;;5052050;28;20213;-64
2022/11/14 11:44:34;;;;;;;30.35;20.42;;;;;;;;;;5059075;28;20204;-64
2022/11/14 11:47:01;;;;;;;25.85;18.05;;;;;;;;;;5058125;28;20282;-64
2022/11/14 11:49:34;;;;;;;26.13;18.02;;;;;;;;;;5051591;28;20268;-64
2022/11/14 11:52:04;;;;;;;26.02;18.20;;;;;;;;;;5038557;28;20436;-64
2022/11/14 11:54:33;;;;;;;27.73;17.58;;;;;;;;;;5038988;28;20216;-63
2022/11/14 11:57:01;;;;;;;32.38;19.33;;;;;;;;;;5038810;28;20407;-62
2022/11/14 11:59:32;;;;;;;31.80;18.38;;;;;;;;;;5048658;28;20280;-62
2022/11/14 12:01:58;;;;;;;27.90;16.92;;;;;;;;;;5057744;28;20216;-62
2022/11/14 12:04:25;;;;;;;30.17;17.38;;;;;;;;;;5058481;28;20216;-62
2022/11/14 12:06:54;;;;;;;26.60;15.55;;;;;;;;;;5051165;28;20229;-63
2022/11/14 12:09:23;;;;;;;23.20;15.70;;;;;;;;;;5041594;28;20210;-62
2022/11/14 12:11:53;;;;;;;25.05;14.40;;;;;;;;;;5042240;28;20260;-63
2022/11/14 12:14:33;;;;;;;23.10;14.43;;;;;;;;;;5050613;28;20204;-63
2022/11/14 12:17:11;;;;;;;20.20;13.77;;;;;;;;;;5052023;28;20205;-63
2022/11/14 12:19:48;;;;;;;17.42;12.65;;;;;;;;;;5048801;28;20217;-63
2022/11/14 12:22:25;;;;;;;11.77;9.43;;;;;;;;;;5054376;28;20205;-63
2022/11/14 12:25:05;;;;;;;13.10;8.88;;;;;;;;;;5060602;28;20466;-63
2022/11/14 12:27:39;;;;;;;9.48;8.55;;;;;;;;;;5047543;28;20488;-63
2022/11/14 12:30:10;;;;;;;14.60;9.80;;;;;;;;;;5057327;28;20210;-63
2022/11/14 12:32:39;;;;;;;18.60;10.23;;;;;;;;;;5042338;28;20209;-63
2022/11/14 12:35:07;;;;;;;13.85;9.98;;;;;;;;;;5041272;28;20206;-63
2022/11/14 12:37:34;;;;;;;15.27;10.00;;;;;;;;;;5041312;28;20210;-63
2022/11/14 12:40:04;;;;;;;13.50;10.27;;;;;;;;;;5041705;28;20213;-63
2022/11/14 12:42:31;;;;;;;7.90;7.18;;;;;;;;;;5040909;28;20438;-63
2022/11/14 12:44:57;;;;;;;9.60;7.47;;;;;;;;;;5041198;28;20216;-64
2022/11/14 12:47:24;;;;;;;5.55;5.22;;;;;;;;;;5041102;28;20268;-61
2022/11/14 12:49:58;;;;;;;3.38;3.08;;;;;;;;;;5048389;28;20227;-62
2022/11/14 12:52:42;;;;;;;3.85;2.97;;;;;;;;;;5041239;28;20551;-62
2022/11/14 12:55:37;;;;;;;1.70;1.60;;;;;;;;;;5043115;28;20223;-62
2022/11/14 12:58:06;;;;;;;2.65;2.05;;;;;;;;;;5056323;28;20209;-62
2022/11/14 13:00:33;;;;;;;2.17;2.03;;;;;;;;;;5060931;28;20216;-62
2022/11/14 13:03:20;;;;;;;2.85;1.83;;;;;;;;;;5044260;28;20241;-63
2022/11/14 13:06:04;;;;;;;2.00;1.90;;;;;;;;;;5045432;28;20217;-63
2022/11/14 13:08:43;;;;;;;2.38;1.90;;;;;;;;;;5051390;28;20420;-62
2022/11/14 13:21:44;;;;;;;2.35;2.10;;;;;;;;;;5042148;28;20425;-63
2022/11/14 13:22:39;;;;;;;1.42;1.33;;;;;;;;;;5056152;28;20219;-63
2022/11/14 13:25:19;;;;;;;2.45;1.80;;;;;;;;;;5056422;28;20607;-62
2022/11/14 13:27:46;;;;;;;1.70;1.60;;;;;;;;;;5056269;28;20251;-63
2022/11/14 13:30:15;;;;;;;1.30;1.25;;;;;;;;;;5056583;28;20697;-63
2022/11/14 13:33:05;;;;;;;4.10;1.23;;;;;;;;;;5057123;28;20209;-62
2022/11/14 13:35:55;;;;;;;4.25;1.70;;;;;;;;;;5056111;28;20213;-62
2022/11/14 13:38:42;;;;;;;1.92;1.80;;;;;;;;;;5032197;28;20465;-61
2022/11/14 13:41:20;;;;;;;1.60;1.50;;;;;;;;;;5018663;28;20210;-62
2022/11/14 13:43:52;;;;;;;1.85;1.40;;;;;;;;;;5037225;28;20214;-62
2022/11/14 13:46:28;;;;;;;1.45;1.27;;;;;;;;;;5036142;28;20229;-64
2022/11/14 13:49:03;;;;;;;2.65;1.73;;;;;;;;;;5050122;28;20226;-63
2022/11/14 13:51:29;;;;;;;1.80;1.70;;;;;;;;;;5055974;28;20220;-63
2022/11/14 13:53:56;;;;;;;5.25;2.25;;;;;;;;;;5056471;28;20220;-63
2022/11/14 13:56:28;;;;;;;2.88;2.28;;;;;;;;;;5055586;28;20217;-63
2022/11/14 13:59:07;;;;;;;26.77;10.20;;;;;;;;;;5055923;28;20235;-63
2022/11/14 14:01:41;;;;;;;15.35;5.45;;;;;;;;;;5054927;28;20208;-63
2022/11/14 14:04:14;;;;;;;2.67;2.30;;;;;;;;;;5036665;28;20225;-63
2022/11/14 14:06:47;;;;;;;2.25;1.77;;;;;;;;;;5045300;28;20233;-62
2022/11/14 14:09:17;;;;;;;3.70;2.17;;;;;;;;;;5042229;28;20217;-63
2022/11/14 14:11:50;;;;;;;2.05;1.88;;;;;;;;;;5055779;28;20213;-63
2022/11/14 14:14:25;;;;;;;2.17;1.98;;;;;;;;;;5055496;28;20213;-63
2022/11/14 14:16:55;;;;;;;2.25;2.08;;;;;;;;;;5041200;28;20232;-62
2022/11/14 14:19:28;;;;;;;2.67;1.80;;;;;;;;;;5054694;28;20532;-63
2022/11/14 14:21:57;;;;;;;4.30;1.65;;;;;;;;;;5036454;28;20218;-62
2022/11/14 14:24:33;;;;;;;2.00;1.90;;;;;;;;;;5036059;28;20240;-62
2022/11/14 14:27:05;;;;;;;6.50;1.85;;;;;;;;;;5034075;28;20233;-62
2022/11/14 14:29:37;;;;;;;2.20;1.50;;;;;;;;;;5046778;28;20209;-62
2022/11/14 14:32:10;;;;;;;1.40;1.30;;;;;;;;;;5042959;28;20212;-62
2022/11/14 14:34:36;;;;;;;1.77;1.40;;;;;;;;;;5056488;28;20558;-63
2022/11/14 14:37:02;;;;;;;3.00;1.80;;;;;;;;;;5053258;28;20523;-63
2022/11/14 14:39:29;;;;;;;2.55;1.67;;;;;;;;;;5055637;28;20263;-63